<?xml version="1.0" encoding="UTF-8" standalone="no" ?>
<gpx xmlns="http://www.topografix.com/GPX/1/1" xmlns:xsi="http://www.w3.org/2001/XMLSchema-instance" xsi:schemaLocation="http://www.topografix.com/GPX/1/1 http://www.topografix.com/GPX/1/1/gpx.xsd" version="1.1" creator="VisuGPX - https://www.visugpx.com">
  <metadata>
    <name>Le sentier des orchidées à Gersheim</name>
    <desc><![CDATA[Départ au parking du cimetière de Gersheim, Dekan Schindler Strasse. Quinze minutes de marche jusqu?au départ du sentier près de la ferme équestre de Lachenhof. Monter sur le sentier à gauche. Une dizaine de panneaux d?information, répartis tout au long des 2,7 km du circuit, renseignent sur les orchidées, les buissons, la nature, les oiseaux, les papillons ?rencontrés au cours de la balade. Une vingtaine d?orchidées y fleurissent d?avril à août. La période la plus faste dans le fleurissement va de mi-mai à mi-juin. Compter au moins 2 heures pour profiter tranquillement des multiples points de vue, de l?observation des orchidées rencontrées, des papillons, ?
D?autres infos sur :
http://www.clubvosgienbitche.fr/topoguide-balades-pays-bitche.html
]]></desc>
  </metadata>
  <trk>
    <name><![CDATA[Gersheim Orchidées 20200627]]></name>
    <trkseg>
      <trkpt lat="49.15102" lon="7.20535">
        <ele>240.61964051906</ele>
        <time>2020-06-27T06:55:29Z</time>
      </trkpt>
      <trkpt lat="49.15094" lon="7.20538">
        <ele>229.58205677313</ele>
        <time>2020-06-27T06:55:38Z</time>
      </trkpt>
      <trkpt lat="49.15086" lon="7.20537">
        <ele>229.95354189406</ele>
        <time>2020-06-27T06:55:46Z</time>
      </trkpt>
      <trkpt lat="49.15078" lon="7.20536">
        <ele>231.10189952375</ele>
        <time>2020-06-27T06:55:54Z</time>
      </trkpt>
      <trkpt lat="49.15069" lon="7.20534">
        <ele>231.0624195825</ele>
        <time>2020-06-27T06:56:03Z</time>
      </trkpt>
      <trkpt lat="49.15061" lon="7.20532">
        <ele>231.40261687312</ele>
        <time>2020-06-27T06:56:09Z</time>
      </trkpt>
      <trkpt lat="49.15054" lon="7.20526">
        <ele>230.7756365275</ele>
        <time>2020-06-27T06:56:17Z</time>
      </trkpt>
      <trkpt lat="49.15045" lon="7.20522">
        <ele>227.58239603734</ele>
        <time>2020-06-27T06:56:26Z</time>
      </trkpt>
      <trkpt lat="49.15038" lon="7.20516">
        <ele>226.88723278219</ele>
        <time>2020-06-27T06:56:36Z</time>
      </trkpt>
      <trkpt lat="49.15032" lon="7.20508">
        <ele>225.98248501016</ele>
        <time>2020-06-27T06:56:45Z</time>
      </trkpt>
      <trkpt lat="49.15026" lon="7.20499">
        <ele>227.97162202141</ele>
        <time>2020-06-27T06:56:52Z</time>
      </trkpt>
      <trkpt lat="49.15022" lon="7.20487">
        <ele>230.54329832875</ele>
        <time>2020-06-27T06:56:59Z</time>
      </trkpt>
      <trkpt lat="49.15024" lon="7.20475">
        <ele>228.68858003937</ele>
        <time>2020-06-27T06:57:07Z</time>
      </trkpt>
      <trkpt lat="49.15028" lon="7.20463">
        <ele>226.92482268797</ele>
        <time>2020-06-27T06:57:14Z</time>
      </trkpt>
      <trkpt lat="49.15031" lon="7.20452">
        <ele>229.73680500547</ele>
        <time>2020-06-27T06:57:20Z</time>
      </trkpt>
      <trkpt lat="49.15035" lon="7.20441">
        <ele>232.55112949406</ele>
        <time>2020-06-27T06:57:25Z</time>
      </trkpt>
      <trkpt lat="49.1504" lon="7.20431">
        <ele>234.21070114156</ele>
        <time>2020-06-27T06:57:31Z</time>
      </trkpt>
      <trkpt lat="49.15045" lon="7.20422">
        <ele>235.75898109922</ele>
        <time>2020-06-27T06:57:37Z</time>
      </trkpt>
      <trkpt lat="49.15051" lon="7.20414">
        <ele>238.84836071219</ele>
        <time>2020-06-27T06:57:43Z</time>
      </trkpt>
      <trkpt lat="49.15058" lon="7.20409">
        <ele>240.74675819156</ele>
        <time>2020-06-27T06:57:49Z</time>
      </trkpt>
      <trkpt lat="49.15066" lon="7.20407">
        <ele>242.43677763781</ele>
        <time>2020-06-27T06:57:55Z</time>
      </trkpt>
      <trkpt lat="49.15075" lon="7.20404">
        <ele>242.26024541563</ele>
        <time>2020-06-27T06:58:02Z</time>
      </trkpt>
      <trkpt lat="49.15083" lon="7.20404">
        <ele>242.2375482575</ele>
        <time>2020-06-27T06:58:08Z</time>
      </trkpt>
      <trkpt lat="49.15091" lon="7.20405">
        <ele>243.47935178656</ele>
        <time>2020-06-27T06:58:14Z</time>
      </trkpt>
      <trkpt lat="49.15099" lon="7.20403">
        <ele>241.41653113563</ele>
        <time>2020-06-27T06:58:20Z</time>
      </trkpt>
      <trkpt lat="49.15108" lon="7.20402">
        <ele>241.33060360047</ele>
        <time>2020-06-27T06:58:27Z</time>
      </trkpt>
      <trkpt lat="49.15116" lon="7.20402">
        <ele>241.71280094891</ele>
        <time>2020-06-27T06:58:34Z</time>
      </trkpt>
      <trkpt lat="49.15125" lon="7.20401">
        <ele>241.93281129203</ele>
        <time>2020-06-27T06:58:40Z</time>
      </trkpt>
      <trkpt lat="49.15132" lon="7.20402">
        <ele>240.03085442812</ele>
        <time>2020-06-27T06:58:46Z</time>
      </trkpt>
      <trkpt lat="49.15141" lon="7.20401">
        <ele>240.89906393063</ele>
        <time>2020-06-27T06:58:52Z</time>
      </trkpt>
      <trkpt lat="49.15149" lon="7.20399">
        <ele>243.3471216175</ele>
        <time>2020-06-27T06:58:59Z</time>
      </trkpt>
      <trkpt lat="49.15157" lon="7.20401">
        <ele>242.19178758</ele>
        <time>2020-06-27T06:59:05Z</time>
      </trkpt>
      <trkpt lat="49.15166" lon="7.204">
        <ele>243.00089925125</ele>
        <time>2020-06-27T06:59:12Z</time>
      </trkpt>
      <trkpt lat="49.15174" lon="7.20403">
        <ele>241.32061047</ele>
        <time>2020-06-27T06:59:19Z</time>
      </trkpt>
      <trkpt lat="49.15182" lon="7.20406">
        <ele>240.66231906016</ele>
        <time>2020-06-27T06:59:25Z</time>
      </trkpt>
      <trkpt lat="49.1519" lon="7.20409">
        <ele>238.74674743156</ele>
        <time>2020-06-27T06:59:31Z</time>
      </trkpt>
      <trkpt lat="49.15199" lon="7.20409">
        <ele>237.46939024156</ele>
        <time>2020-06-27T06:59:37Z</time>
      </trkpt>
      <trkpt lat="49.15206" lon="7.20407">
        <ele>236.93042706156</ele>
        <time>2020-06-27T06:59:43Z</time>
      </trkpt>
      <trkpt lat="49.15215" lon="7.20405">
        <ele>234.71059959359</ele>
        <time>2020-06-27T06:59:50Z</time>
      </trkpt>
      <trkpt lat="49.15222" lon="7.20403">
        <ele>233.61517305406</ele>
        <time>2020-06-27T06:59:56Z</time>
      </trkpt>
      <trkpt lat="49.15231" lon="7.204">
        <ele>231.39836274875</ele>
        <time>2020-06-27T07:00:18Z</time>
      </trkpt>
      <trkpt lat="49.15239" lon="7.20398">
        <ele>234.57837866938</ele>
        <time>2020-06-27T07:00:26Z</time>
      </trkpt>
      <trkpt lat="49.15246" lon="7.20397">
        <ele>235.04812419187</ele>
        <time>2020-06-27T07:00:32Z</time>
      </trkpt>
      <trkpt lat="49.15257" lon="7.20395">
        <ele>235.17848277531</ele>
        <time>2020-06-27T07:00:36Z</time>
      </trkpt>
      <trkpt lat="49.15265" lon="7.2039">
        <ele>235.90389330188</ele>
        <time>2020-06-27T07:00:41Z</time>
      </trkpt>
      <trkpt lat="49.15272" lon="7.20387">
        <ele>235.12880482234</ele>
        <time>2020-06-27T07:00:47Z</time>
      </trkpt>
      <trkpt lat="49.15281" lon="7.20385">
        <ele>235.14200210094</ele>
        <time>2020-06-27T07:00:54Z</time>
      </trkpt>
      <trkpt lat="49.15289" lon="7.20384">
        <ele>237.21333596344</ele>
        <time>2020-06-27T07:00:59Z</time>
      </trkpt>
      <trkpt lat="49.15297" lon="7.20382">
        <ele>239.04889925734</ele>
        <time>2020-06-27T07:01:05Z</time>
      </trkpt>
      <trkpt lat="49.15305" lon="7.2038">
        <ele>237.9924233475</ele>
        <time>2020-06-27T07:01:11Z</time>
      </trkpt>
      <trkpt lat="49.15313" lon="7.20377">
        <ele>239.0706723075</ele>
        <time>2020-06-27T07:01:17Z</time>
      </trkpt>
      <trkpt lat="49.15322" lon="7.20374">
        <ele>240.79569373828</ele>
        <time>2020-06-27T07:01:24Z</time>
      </trkpt>
      <trkpt lat="49.1533" lon="7.20371">
        <ele>239.98990889516</ele>
        <time>2020-06-27T07:01:30Z</time>
      </trkpt>
      <trkpt lat="49.15338" lon="7.20369">
        <ele>240.72148480281</ele>
        <time>2020-06-27T07:01:36Z</time>
      </trkpt>
      <trkpt lat="49.15346" lon="7.20368">
        <ele>241.58359490969</ele>
        <time>2020-06-27T07:01:42Z</time>
      </trkpt>
      <trkpt lat="49.15354" lon="7.20366">
        <ele>242.69568630141</ele>
        <time>2020-06-27T07:01:48Z</time>
      </trkpt>
      <trkpt lat="49.15362" lon="7.20364">
        <ele>241.316302095</ele>
        <time>2020-06-27T07:01:54Z</time>
      </trkpt>
      <trkpt lat="49.15371" lon="7.20363">
        <ele>240.35509389922</ele>
        <time>2020-06-27T07:02:00Z</time>
      </trkpt>
      <trkpt lat="49.15379" lon="7.20361">
        <ele>240.10074253281</ele>
        <time>2020-06-27T07:02:06Z</time>
      </trkpt>
      <trkpt lat="49.15387" lon="7.20363">
        <ele>244.08606041047</ele>
        <time>2020-06-27T07:02:37Z</time>
      </trkpt>
      <trkpt lat="49.15396" lon="7.20361">
        <ele>243.15176640344</ele>
        <time>2020-06-27T07:02:44Z</time>
      </trkpt>
      <trkpt lat="49.15405" lon="7.20357">
        <ele>243.09960007453</ele>
        <time>2020-06-27T07:03:03Z</time>
      </trkpt>
      <trkpt lat="49.15413" lon="7.20354">
        <ele>242.7668879275</ele>
        <time>2020-06-27T07:03:11Z</time>
      </trkpt>
      <trkpt lat="49.15421" lon="7.20357">
        <ele>242.41661651609</ele>
        <time>2020-06-27T07:03:18Z</time>
      </trkpt>
      <trkpt lat="49.1543" lon="7.20354">
        <ele>241.88053830844</ele>
        <time>2020-06-27T07:03:25Z</time>
      </trkpt>
      <trkpt lat="49.15438" lon="7.20353">
        <ele>242.91630671484</ele>
        <time>2020-06-27T07:03:31Z</time>
      </trkpt>
      <trkpt lat="49.15446" lon="7.2035">
        <ele>241.44698536813</ele>
        <time>2020-06-27T07:03:38Z</time>
      </trkpt>
      <trkpt lat="49.15454" lon="7.20347">
        <ele>242.20436319172</ele>
        <time>2020-06-27T07:03:45Z</time>
      </trkpt>
      <trkpt lat="49.15463" lon="7.20345">
        <ele>242.93689182672</ele>
        <time>2020-06-27T07:03:52Z</time>
      </trkpt>
      <trkpt lat="49.15471" lon="7.20345">
        <ele>243.87652317719</ele>
        <time>2020-06-27T07:03:58Z</time>
      </trkpt>
      <trkpt lat="49.15479" lon="7.20343">
        <ele>244.21240056688</ele>
        <time>2020-06-27T07:04:04Z</time>
      </trkpt>
      <trkpt lat="49.15487" lon="7.2034">
        <ele>246.03477107188</ele>
        <time>2020-06-27T07:04:10Z</time>
      </trkpt>
      <trkpt lat="49.15495" lon="7.20336">
        <ele>244.89333018938</ele>
        <time>2020-06-27T07:04:17Z</time>
      </trkpt>
      <trkpt lat="49.15504" lon="7.20336">
        <ele>244.60990928375</ele>
        <time>2020-06-27T07:04:23Z</time>
      </trkpt>
      <trkpt lat="49.15512" lon="7.20336">
        <ele>242.4004454675</ele>
        <time>2020-06-27T07:04:29Z</time>
      </trkpt>
      <trkpt lat="49.1552" lon="7.20332">
        <ele>244.00055625344</ele>
        <time>2020-06-27T07:04:35Z</time>
      </trkpt>
      <trkpt lat="49.15528" lon="7.20331">
        <ele>242.85608668344</ele>
        <time>2020-06-27T07:04:41Z</time>
      </trkpt>
      <trkpt lat="49.15536" lon="7.20327">
        <ele>243.20084977562</ele>
        <time>2020-06-27T07:04:46Z</time>
      </trkpt>
      <trkpt lat="49.15544" lon="7.20327">
        <ele>242.56496119781</ele>
        <time>2020-06-27T07:04:52Z</time>
      </trkpt>
      <trkpt lat="49.15552" lon="7.20327">
        <ele>241.74440047719</ele>
        <time>2020-06-27T07:04:58Z</time>
      </trkpt>
      <trkpt lat="49.1556" lon="7.20327">
        <ele>240.16194074109</ele>
        <time>2020-06-27T07:05:04Z</time>
      </trkpt>
      <trkpt lat="49.15568" lon="7.20326">
        <ele>238.19942277187</ele>
        <time>2020-06-27T07:05:10Z</time>
      </trkpt>
      <trkpt lat="49.15577" lon="7.20326">
        <ele>238.16390087094</ele>
        <time>2020-06-27T07:05:16Z</time>
      </trkpt>
      <trkpt lat="49.15585" lon="7.20325">
        <ele>237.6938350575</ele>
        <time>2020-06-27T07:05:22Z</time>
      </trkpt>
      <trkpt lat="49.15594" lon="7.20324">
        <ele>236.8345060575</ele>
        <time>2020-06-27T07:05:28Z</time>
      </trkpt>
      <trkpt lat="49.15602" lon="7.20322">
        <ele>234.90049918625</ele>
        <time>2020-06-27T07:05:34Z</time>
      </trkpt>
      <trkpt lat="49.15611" lon="7.20322">
        <ele>235.82116092313</ele>
        <time>2020-06-27T07:05:40Z</time>
      </trkpt>
      <trkpt lat="49.15619" lon="7.20321">
        <ele>233.9205494775</ele>
        <time>2020-06-27T07:05:46Z</time>
      </trkpt>
      <trkpt lat="49.15628" lon="7.20321">
        <ele>233.7486717175</ele>
        <time>2020-06-27T07:05:52Z</time>
      </trkpt>
      <trkpt lat="49.15636" lon="7.20317">
        <ele>235.5007936825</ele>
        <time>2020-06-27T07:05:58Z</time>
      </trkpt>
      <trkpt lat="49.15644" lon="7.20315">
        <ele>235.06093147625</ele>
        <time>2020-06-27T07:06:04Z</time>
      </trkpt>
      <trkpt lat="49.15653" lon="7.20314">
        <ele>233.77778195125</ele>
        <time>2020-06-27T07:06:11Z</time>
      </trkpt>
      <trkpt lat="49.15661" lon="7.20312">
        <ele>234.49561990875</ele>
        <time>2020-06-27T07:06:17Z</time>
      </trkpt>
      <trkpt lat="49.15669" lon="7.20315">
        <ele>233.44369334109</ele>
        <time>2020-06-27T07:06:23Z</time>
      </trkpt>
      <trkpt lat="49.15677" lon="7.20316">
        <ele>233.94503810969</ele>
        <time>2020-06-27T07:06:29Z</time>
      </trkpt>
      <trkpt lat="49.15685" lon="7.20322">
        <ele>232.30127194219</ele>
        <time>2020-06-27T07:06:36Z</time>
      </trkpt>
      <trkpt lat="49.15694" lon="7.20326">
        <ele>234.23468041219</ele>
        <time>2020-06-27T07:06:43Z</time>
      </trkpt>
      <trkpt lat="49.15702" lon="7.20328">
        <ele>234.19407190844</ele>
        <time>2020-06-27T07:06:49Z</time>
      </trkpt>
      <trkpt lat="49.1571" lon="7.2033">
        <ele>235.58860855359</ele>
        <time>2020-06-27T07:06:55Z</time>
      </trkpt>
      <trkpt lat="49.15718" lon="7.20333">
        <ele>237.23100016344</ele>
        <time>2020-06-27T07:07:01Z</time>
      </trkpt>
      <trkpt lat="49.15727" lon="7.20336">
        <ele>238.69969919859</ele>
        <time>2020-06-27T07:07:08Z</time>
      </trkpt>
      <trkpt lat="49.15735" lon="7.2034">
        <ele>237.76979290344</ele>
        <time>2020-06-27T07:07:15Z</time>
      </trkpt>
      <trkpt lat="49.15743" lon="7.20343">
        <ele>237.55512348922</ele>
        <time>2020-06-27T07:07:22Z</time>
      </trkpt>
      <trkpt lat="49.15751" lon="7.20346">
        <ele>238.36243061125</ele>
        <time>2020-06-27T07:07:28Z</time>
      </trkpt>
      <trkpt lat="49.15759" lon="7.20347">
        <ele>239.75081174563</ele>
        <time>2020-06-27T07:07:34Z</time>
      </trkpt>
      <trkpt lat="49.15767" lon="7.20351">
        <ele>239.53545078469</ele>
        <time>2020-06-27T07:07:40Z</time>
      </trkpt>
      <trkpt lat="49.15775" lon="7.20353">
        <ele>235.43978037</ele>
        <time>2020-06-27T07:07:47Z</time>
      </trkpt>
      <trkpt lat="49.15784" lon="7.20355">
        <ele>236.98456228984</ele>
        <time>2020-06-27T07:07:54Z</time>
      </trkpt>
      <trkpt lat="49.15791" lon="7.20362">
        <ele>238.25462227688</ele>
        <time>2020-06-27T07:08:01Z</time>
      </trkpt>
      <trkpt lat="49.158" lon="7.20362">
        <ele>239.13350868688</ele>
        <time>2020-06-27T07:08:07Z</time>
      </trkpt>
      <trkpt lat="49.15808" lon="7.20364">
        <ele>239.62049219375</ele>
        <time>2020-06-27T07:08:13Z</time>
      </trkpt>
      <trkpt lat="49.15815" lon="7.20365">
        <ele>240.03366172156</ele>
        <time>2020-06-27T07:08:19Z</time>
      </trkpt>
      <trkpt lat="49.15822" lon="7.20358">
        <ele>240.26077324219</ele>
        <time>2020-06-27T07:08:27Z</time>
      </trkpt>
      <trkpt lat="49.15825" lon="7.20344">
        <ele>240.42146265219</ele>
        <time>2020-06-27T07:09:03Z</time>
      </trkpt>
      <trkpt lat="49.15828" lon="7.20332">
        <ele>242.86689770125</ele>
        <time>2020-06-27T07:09:11Z</time>
      </trkpt>
      <trkpt lat="49.15833" lon="7.20321">
        <ele>244.39211037469</ele>
        <time>2020-06-27T07:09:18Z</time>
      </trkpt>
      <trkpt lat="49.15837" lon="7.2031">
        <ele>245.52623196688</ele>
        <time>2020-06-27T07:09:26Z</time>
      </trkpt>
      <trkpt lat="49.1584" lon="7.20299">
        <ele>248.03437375656</ele>
        <time>2020-06-27T07:09:34Z</time>
      </trkpt>
      <trkpt lat="49.15843" lon="7.20286">
        <ele>247.68693081078</ele>
        <time>2020-06-27T07:09:43Z</time>
      </trkpt>
      <trkpt lat="49.15846" lon="7.20273">
        <ele>248.12180801781</ele>
        <time>2020-06-27T07:09:53Z</time>
      </trkpt>
      <trkpt lat="49.15849" lon="7.20261">
        <ele>250.53024612219</ele>
        <time>2020-06-27T07:10:02Z</time>
      </trkpt>
      <trkpt lat="49.15854" lon="7.20251">
        <ele>251.44472706219</ele>
        <time>2020-06-27T07:10:11Z</time>
      </trkpt>
      <trkpt lat="49.15855" lon="7.20238">
        <ele>252.56590040609</ele>
        <time>2020-06-27T07:10:21Z</time>
      </trkpt>
      <trkpt lat="49.15859" lon="7.20227">
        <ele>253.26123846</ele>
        <time>2020-06-27T07:10:30Z</time>
      </trkpt>
      <trkpt lat="49.15863" lon="7.20215">
        <ele>253.71860955969</ele>
        <time>2020-06-27T07:10:39Z</time>
      </trkpt>
      <trkpt lat="49.15868" lon="7.20204">
        <ele>256.73372903719</ele>
        <time>2020-06-27T07:10:48Z</time>
      </trkpt>
      <trkpt lat="49.15872" lon="7.20192">
        <ele>257.0448458625</ele>
        <time>2020-06-27T07:10:56Z</time>
      </trkpt>
      <trkpt lat="49.15867" lon="7.2018">
        <ele>259.02554879187</ele>
        <time>2020-06-27T07:11:12Z</time>
      </trkpt>
      <trkpt lat="49.15876" lon="7.20178">
        <ele>254.49307241844</ele>
        <time>2020-06-27T07:11:47Z</time>
      </trkpt>
      <trkpt lat="49.15882" lon="7.20168">
        <ele>254.34673666281</ele>
        <time>2020-06-27T07:11:59Z</time>
      </trkpt>
      <trkpt lat="49.15889" lon="7.2016">
        <ele>252.55120950047</ele>
        <time>2020-06-27T07:12:10Z</time>
      </trkpt>
      <trkpt lat="49.15892" lon="7.20148">
        <ele>249.04062997719</ele>
        <time>2020-06-27T07:12:20Z</time>
      </trkpt>
      <trkpt lat="49.15896" lon="7.20137">
        <ele>248.15712108922</ele>
        <time>2020-06-27T07:12:30Z</time>
      </trkpt>
      <trkpt lat="49.15899" lon="7.20124">
        <ele>252.41197778531</ele>
        <time>2020-06-27T07:12:40Z</time>
      </trkpt>
      <trkpt lat="49.15901" lon="7.2011">
        <ele>259.67679589188</ele>
        <time>2020-06-27T07:12:47Z</time>
      </trkpt>
      <trkpt lat="49.15897" lon="7.20098">
        <ele>266.85599706938</ele>
        <time>2020-06-27T07:13:02Z</time>
      </trkpt>
      <trkpt lat="49.15891" lon="7.20087">
        <ele>274.24069493312</ele>
        <time>2020-06-27T07:13:12Z</time>
      </trkpt>
      <trkpt lat="49.15888" lon="7.20076">
        <ele>274.71772395313</ele>
        <time>2020-06-27T07:13:21Z</time>
      </trkpt>
      <trkpt lat="49.15883" lon="7.20065">
        <ele>273.77194540578</ele>
        <time>2020-06-27T07:13:29Z</time>
      </trkpt>
      <trkpt lat="49.15878" lon="7.20054">
        <ele>276.14791856219</ele>
        <time>2020-06-27T07:13:38Z</time>
      </trkpt>
      <trkpt lat="49.15874" lon="7.20044">
        <ele>277.60872026578</ele>
        <time>2020-06-27T07:13:45Z</time>
      </trkpt>
      <trkpt lat="49.15871" lon="7.20031">
        <ele>276.03816798391</ele>
        <time>2020-06-27T07:13:55Z</time>
      </trkpt>
      <trkpt lat="49.15867" lon="7.2002">
        <ele>276.93600252625</ele>
        <time>2020-06-27T07:14:04Z</time>
      </trkpt>
      <trkpt lat="49.15864" lon="7.20009">
        <ele>275.75886126156</ele>
        <time>2020-06-27T07:14:11Z</time>
      </trkpt>
      <trkpt lat="49.15861" lon="7.19996">
        <ele>276.67544256172</ele>
        <time>2020-06-27T07:14:20Z</time>
      </trkpt>
      <trkpt lat="49.15858" lon="7.19984">
        <ele>277.16852438781</ele>
        <time>2020-06-27T07:14:29Z</time>
      </trkpt>
      <trkpt lat="49.15853" lon="7.19973">
        <ele>276.90043598031</ele>
        <time>2020-06-27T07:14:35Z</time>
      </trkpt>
      <trkpt lat="49.15849" lon="7.19964">
        <ele>277.67039358547</ele>
        <time>2020-06-27T07:14:41Z</time>
      </trkpt>
      <trkpt lat="49.15846" lon="7.19951">
        <ele>278.59185077812</ele>
        <time>2020-06-27T07:14:48Z</time>
      </trkpt>
      <trkpt lat="49.15843" lon="7.19939">
        <ele>277.02555147719</ele>
        <time>2020-06-27T07:14:56Z</time>
      </trkpt>
      <trkpt lat="49.1584" lon="7.19927">
        <ele>275.22271091062</ele>
        <time>2020-06-27T07:15:05Z</time>
      </trkpt>
      <trkpt lat="49.15837" lon="7.19916">
        <ele>274.18261548688</ele>
        <time>2020-06-27T07:15:19Z</time>
      </trkpt>
      <trkpt lat="49.15831" lon="7.19906">
        <ele>271.6246740375</ele>
        <time>2020-06-27T07:15:44Z</time>
      </trkpt>
      <trkpt lat="49.15826" lon="7.19895">
        <ele>274.22371741</ele>
        <time>2020-06-27T07:16:22Z</time>
      </trkpt>
      <trkpt lat="49.15833" lon="7.19886">
        <ele>274.96010787922</ele>
        <time>2020-06-27T07:17:27Z</time>
      </trkpt>
      <trkpt lat="49.15841" lon="7.19892">
        <ele>273.76255529906</ele>
        <time>2020-06-27T07:17:38Z</time>
      </trkpt>
      <trkpt lat="49.15847" lon="7.19901">
        <ele>274.57078988906</ele>
        <time>2020-06-27T07:17:48Z</time>
      </trkpt>
      <trkpt lat="49.15853" lon="7.1991">
        <ele>277.53710757375</ele>
        <time>2020-06-27T07:18:40Z</time>
      </trkpt>
      <trkpt lat="49.15861" lon="7.19916">
        <ele>276.57067705031</ele>
        <time>2020-06-27T07:18:55Z</time>
      </trkpt>
      <trkpt lat="49.15861" lon="7.19929">
        <ele>279.05654561047</ele>
        <time>2020-06-27T07:19:18Z</time>
      </trkpt>
      <trkpt lat="49.15865" lon="7.19941">
        <ele>281.76845783422</ele>
        <time>2020-06-27T07:19:28Z</time>
      </trkpt>
      <trkpt lat="49.1587" lon="7.19953">
        <ele>282.2419350225</ele>
        <time>2020-06-27T07:19:45Z</time>
      </trkpt>
      <trkpt lat="49.15874" lon="7.19965">
        <ele>282.86418052172</ele>
        <time>2020-06-27T07:19:54Z</time>
      </trkpt>
      <trkpt lat="49.15878" lon="7.19977">
        <ele>278.49662953203</ele>
        <time>2020-06-27T07:20:04Z</time>
      </trkpt>
      <trkpt lat="49.15879" lon="7.19991">
        <ele>282.44378096312</ele>
        <time>2020-06-27T07:20:20Z</time>
      </trkpt>
      <trkpt lat="49.15888" lon="7.19988">
        <ele>287.64006583531</ele>
        <time>2020-06-27T07:20:54Z</time>
      </trkpt>
      <trkpt lat="49.15895" lon="7.19981">
        <ele>289.11447200906</ele>
        <time>2020-06-27T07:21:04Z</time>
      </trkpt>
      <trkpt lat="49.15901" lon="7.19972">
        <ele>293.6161800625</ele>
        <time>2020-06-27T07:21:12Z</time>
      </trkpt>
      <trkpt lat="49.15907" lon="7.19962">
        <ele>296.66186122844</ele>
        <time>2020-06-27T07:21:21Z</time>
      </trkpt>
      <trkpt lat="49.15912" lon="7.19952">
        <ele>298.22607240188</ele>
        <time>2020-06-27T07:21:29Z</time>
      </trkpt>
      <trkpt lat="49.15917" lon="7.19943">
        <ele>298.7130299875</ele>
        <time>2020-06-27T07:21:38Z</time>
      </trkpt>
      <trkpt lat="49.15924" lon="7.19933">
        <ele>303.5903717925</ele>
        <time>2020-06-27T07:21:46Z</time>
      </trkpt>
      <trkpt lat="49.15931" lon="7.19928">
        <ele>299.53039232844</ele>
        <time>2020-06-27T07:21:55Z</time>
      </trkpt>
      <trkpt lat="49.15936" lon="7.19918">
        <ele>299.60210299094</ele>
        <time>2020-06-27T07:22:03Z</time>
      </trkpt>
      <trkpt lat="49.1594" lon="7.19907">
        <ele>301.85106230719</ele>
        <time>2020-06-27T07:22:11Z</time>
      </trkpt>
      <trkpt lat="49.15944" lon="7.19896">
        <ele>302.75531350094</ele>
        <time>2020-06-27T07:22:19Z</time>
      </trkpt>
      <trkpt lat="49.15947" lon="7.19885">
        <ele>305.58204964625</ele>
        <time>2020-06-27T07:22:27Z</time>
      </trkpt>
      <trkpt lat="49.1595" lon="7.19873">
        <ele>306.12286900453</ele>
        <time>2020-06-27T07:22:35Z</time>
      </trkpt>
      <trkpt lat="49.15954" lon="7.19862">
        <ele>304.81918226094</ele>
        <time>2020-06-27T07:22:44Z</time>
      </trkpt>
      <trkpt lat="49.1596" lon="7.19851">
        <ele>304.94118793219</ele>
        <time>2020-06-27T07:22:53Z</time>
      </trkpt>
      <trkpt lat="49.15966" lon="7.19842">
        <ele>304.71241811562</ele>
        <time>2020-06-27T07:23:01Z</time>
      </trkpt>
      <trkpt lat="49.15972" lon="7.19832">
        <ele>304.41709558359</ele>
        <time>2020-06-27T07:23:10Z</time>
      </trkpt>
      <trkpt lat="49.15977" lon="7.19822">
        <ele>304.92740907891</ele>
        <time>2020-06-27T07:23:19Z</time>
      </trkpt>
      <trkpt lat="49.15982" lon="7.19811">
        <ele>306.59586094406</ele>
        <time>2020-06-27T07:23:28Z</time>
      </trkpt>
      <trkpt lat="49.15989" lon="7.19802">
        <ele>309.18649286016</ele>
        <time>2020-06-27T07:24:09Z</time>
      </trkpt>
      <trkpt lat="49.15993" lon="7.19791">
        <ele>307.57726364438</ele>
        <time>2020-06-27T07:24:18Z</time>
      </trkpt>
      <trkpt lat="49.15997" lon="7.19781">
        <ele>306.7273239675</ele>
        <time>2020-06-27T07:24:27Z</time>
      </trkpt>
      <trkpt lat="49.16002" lon="7.19771">
        <ele>307.66822557016</ele>
        <time>2020-06-27T07:24:35Z</time>
      </trkpt>
      <trkpt lat="49.16008" lon="7.1976">
        <ele>308.37550167469</ele>
        <time>2020-06-27T07:24:43Z</time>
      </trkpt>
      <trkpt lat="49.16015" lon="7.19753">
        <ele>307.17221338859</ele>
        <time>2020-06-27T07:24:51Z</time>
      </trkpt>
      <trkpt lat="49.16021" lon="7.19743">
        <ele>307.62158263797</ele>
        <time>2020-06-27T07:25:00Z</time>
      </trkpt>
      <trkpt lat="49.16027" lon="7.19734">
        <ele>307.49956634969</ele>
        <time>2020-06-27T07:25:08Z</time>
      </trkpt>
      <trkpt lat="49.16031" lon="7.19723">
        <ele>308.14296232562</ele>
        <time>2020-06-27T07:25:16Z</time>
      </trkpt>
      <trkpt lat="49.16037" lon="7.19713">
        <ele>307.98040069844</ele>
        <time>2020-06-27T07:25:23Z</time>
      </trkpt>
      <trkpt lat="49.16043" lon="7.19704">
        <ele>308.31205056656</ele>
        <time>2020-06-27T07:25:30Z</time>
      </trkpt>
      <trkpt lat="49.16049" lon="7.19695">
        <ele>306.67948891625</ele>
        <time>2020-06-27T07:25:38Z</time>
      </trkpt>
      <trkpt lat="49.16054" lon="7.19686">
        <ele>306.88158546766</ele>
        <time>2020-06-27T07:25:46Z</time>
      </trkpt>
      <trkpt lat="49.1606" lon="7.19675">
        <ele>306.90542836766</ele>
        <time>2020-06-27T07:25:54Z</time>
      </trkpt>
      <trkpt lat="49.16065" lon="7.19664">
        <ele>306.82743575187</ele>
        <time>2020-06-27T07:26:02Z</time>
      </trkpt>
      <trkpt lat="49.16069" lon="7.19654">
        <ele>308.08055817875</ele>
        <time>2020-06-27T07:26:09Z</time>
      </trkpt>
      <trkpt lat="49.16068" lon="7.1964">
        <ele>314.76750262594</ele>
        <time>2020-06-27T07:26:16Z</time>
      </trkpt>
      <trkpt lat="49.16074" lon="7.19631">
        <ele>319.48612642469</ele>
        <time>2020-06-27T07:28:02Z</time>
      </trkpt>
      <trkpt lat="49.16082" lon="7.19626">
        <ele>321.53589717156</ele>
        <time>2020-06-27T07:28:10Z</time>
      </trkpt>
      <trkpt lat="49.16089" lon="7.1962">
        <ele>324.95556308531</ele>
        <time>2020-06-27T07:28:18Z</time>
      </trkpt>
      <trkpt lat="49.16089" lon="7.19606">
        <ele>325.01884538594</ele>
        <time>2020-06-27T07:28:28Z</time>
      </trkpt>
      <trkpt lat="49.16084" lon="7.19596">
        <ele>326.63741460844</ele>
        <time>2020-06-27T07:28:36Z</time>
      </trkpt>
      <trkpt lat="49.16082" lon="7.19583">
        <ele>328.49072497156</ele>
        <time>2020-06-27T07:28:44Z</time>
      </trkpt>
      <trkpt lat="49.16084" lon="7.1957">
        <ele>327.5443423575</ele>
        <time>2020-06-27T07:28:52Z</time>
      </trkpt>
      <trkpt lat="49.16086" lon="7.19558">
        <ele>326.14766907578</ele>
        <time>2020-06-27T07:29:02Z</time>
      </trkpt>
      <trkpt lat="49.16091" lon="7.19547">
        <ele>327.75644843813</ele>
        <time>2020-06-27T07:29:11Z</time>
      </trkpt>
      <trkpt lat="49.16096" lon="7.19537">
        <ele>330.55689606625</ele>
        <time>2020-06-27T07:29:20Z</time>
      </trkpt>
      <trkpt lat="49.16101" lon="7.19527">
        <ele>331.37982683187</ele>
        <time>2020-06-27T07:29:26Z</time>
      </trkpt>
      <trkpt lat="49.16104" lon="7.19515">
        <ele>329.81866000406</ele>
        <time>2020-06-27T07:29:34Z</time>
      </trkpt>
      <trkpt lat="49.16103" lon="7.19502">
        <ele>328.74129086469</ele>
        <time>2020-06-27T07:29:44Z</time>
      </trkpt>
      <trkpt lat="49.16098" lon="7.19492">
        <ele>330.08854741766</ele>
        <time>2020-06-27T07:29:51Z</time>
      </trkpt>
      <trkpt lat="49.16091" lon="7.19483">
        <ele>330.60652781781</ele>
        <time>2020-06-27T07:29:58Z</time>
      </trkpt>
      <trkpt lat="49.16084" lon="7.19475">
        <ele>331.90324929656</ele>
        <time>2020-06-27T07:30:05Z</time>
      </trkpt>
      <trkpt lat="49.16078" lon="7.19467">
        <ele>332.08923788188</ele>
        <time>2020-06-27T07:30:11Z</time>
      </trkpt>
      <trkpt lat="49.16075" lon="7.19455">
        <ele>331.59489755016</ele>
        <time>2020-06-27T07:30:17Z</time>
      </trkpt>
      <trkpt lat="49.16075" lon="7.19443">
        <ele>332.41870849281</ele>
        <time>2020-06-27T07:30:45Z</time>
      </trkpt>
      <trkpt lat="49.16074" lon="7.1943">
        <ele>333.607580505</ele>
        <time>2020-06-27T07:31:40Z</time>
      </trkpt>
      <trkpt lat="49.1607" lon="7.19419">
        <ele>336.59426803484</ele>
        <time>2020-06-27T07:32:33Z</time>
      </trkpt>
      <trkpt lat="49.16074" lon="7.19431">
        <ele>334.16592226953</ele>
        <time>2020-06-27T07:33:09Z</time>
      </trkpt>
      <trkpt lat="49.16077" lon="7.19444">
        <ele>328.9009537375</ele>
        <time>2020-06-27T07:33:17Z</time>
      </trkpt>
      <trkpt lat="49.16074" lon="7.19456">
        <ele>326.43959227266</ele>
        <time>2020-06-27T07:33:35Z</time>
      </trkpt>
      <trkpt lat="49.16075" lon="7.19469">
        <ele>328.25590288875</ele>
        <time>2020-06-27T07:33:41Z</time>
      </trkpt>
      <trkpt lat="49.16076" lon="7.19482">
        <ele>329.41260173125</ele>
        <time>2020-06-27T07:33:48Z</time>
      </trkpt>
      <trkpt lat="49.16075" lon="7.19496">
        <ele>328.32240076672</ele>
        <time>2020-06-27T07:33:57Z</time>
      </trkpt>
      <trkpt lat="49.16074" lon="7.19508">
        <ele>326.2128371825</ele>
        <time>2020-06-27T07:34:05Z</time>
      </trkpt>
      <trkpt lat="49.16074" lon="7.19521">
        <ele>326.23477908</ele>
        <time>2020-06-27T07:34:12Z</time>
      </trkpt>
      <trkpt lat="49.16072" lon="7.19534">
        <ele>325.89782545875</ele>
        <time>2020-06-27T07:34:20Z</time>
      </trkpt>
      <trkpt lat="49.16071" lon="7.19547">
        <ele>325.80764505422</ele>
        <time>2020-06-27T07:34:28Z</time>
      </trkpt>
      <trkpt lat="49.1607" lon="7.19559">
        <ele>325.61240151062</ele>
        <time>2020-06-27T07:34:35Z</time>
      </trkpt>
      <trkpt lat="49.16068" lon="7.19571">
        <ele>322.96752153094</ele>
        <time>2020-06-27T07:34:42Z</time>
      </trkpt>
      <trkpt lat="49.16066" lon="7.19583">
        <ele>321.88866647031</ele>
        <time>2020-06-27T07:34:49Z</time>
      </trkpt>
      <trkpt lat="49.16066" lon="7.19597">
        <ele>319.72845514156</ele>
        <time>2020-06-27T07:34:57Z</time>
      </trkpt>
      <trkpt lat="49.16065" lon="7.19609">
        <ele>318.95245432625</ele>
        <time>2020-06-27T07:35:04Z</time>
      </trkpt>
      <trkpt lat="49.16064" lon="7.19622">
        <ele>315.08973826906</ele>
        <time>2020-06-27T07:35:12Z</time>
      </trkpt>
      <trkpt lat="49.16062" lon="7.19636">
        <ele>312.13278861062</ele>
        <time>2020-06-27T07:35:20Z</time>
      </trkpt>
      <trkpt lat="49.16061" lon="7.19649">
        <ele>310.58673342406</ele>
        <time>2020-06-27T07:35:28Z</time>
      </trkpt>
      <trkpt lat="49.16058" lon="7.19661">
        <ele>309.94538720344</ele>
        <time>2020-06-27T07:35:35Z</time>
      </trkpt>
      <trkpt lat="49.16054" lon="7.19672">
        <ele>309.43054398656</ele>
        <time>2020-06-27T07:35:42Z</time>
      </trkpt>
      <trkpt lat="49.1605" lon="7.19682">
        <ele>310.36236732312</ele>
        <time>2020-06-27T07:35:49Z</time>
      </trkpt>
      <trkpt lat="49.16046" lon="7.19694">
        <ele>311.79636636531</ele>
        <time>2020-06-27T07:35:56Z</time>
      </trkpt>
      <trkpt lat="49.16042" lon="7.19706">
        <ele>311.59587447828</ele>
        <time>2020-06-27T07:36:03Z</time>
      </trkpt>
      <trkpt lat="49.16037" lon="7.19717">
        <ele>313.58852346563</ele>
        <time>2020-06-27T07:36:09Z</time>
      </trkpt>
      <trkpt lat="49.16031" lon="7.19726">
        <ele>314.89956495281</ele>
        <time>2020-06-27T07:36:50Z</time>
      </trkpt>
      <trkpt lat="49.16024" lon="7.19733">
        <ele>316.58322947375</ele>
        <time>2020-06-27T07:37:25Z</time>
      </trkpt>
      <trkpt lat="49.16019" lon="7.19744">
        <ele>317.23082584766</ele>
        <time>2020-06-27T07:37:34Z</time>
      </trkpt>
      <trkpt lat="49.16013" lon="7.19754">
        <ele>313.34743148219</ele>
        <time>2020-06-27T07:37:43Z</time>
      </trkpt>
      <trkpt lat="49.16007" lon="7.19762">
        <ele>308.67370516328</ele>
        <time>2020-06-27T07:37:51Z</time>
      </trkpt>
      <trkpt lat="49.16001" lon="7.19772">
        <ele>308.40749925781</ele>
        <time>2020-06-27T07:37:58Z</time>
      </trkpt>
      <trkpt lat="49.15996" lon="7.19781">
        <ele>308.42517602406</ele>
        <time>2020-06-27T07:38:04Z</time>
      </trkpt>
      <trkpt lat="49.15992" lon="7.19792">
        <ele>309.1292274775</ele>
        <time>2020-06-27T07:38:10Z</time>
      </trkpt>
      <trkpt lat="49.15988" lon="7.19803">
        <ele>307.57129476031</ele>
        <time>2020-06-27T07:38:16Z</time>
      </trkpt>
      <trkpt lat="49.15982" lon="7.19814">
        <ele>306.84031745516</ele>
        <time>2020-06-27T07:38:22Z</time>
      </trkpt>
      <trkpt lat="49.15977" lon="7.19824">
        <ele>308.154296465</ele>
        <time>2020-06-27T07:38:28Z</time>
      </trkpt>
      <trkpt lat="49.15973" lon="7.19835">
        <ele>305.69452975906</ele>
        <time>2020-06-27T07:38:35Z</time>
      </trkpt>
      <trkpt lat="49.15968" lon="7.19844">
        <ele>306.88140269844</ele>
        <time>2020-06-27T07:38:42Z</time>
      </trkpt>
      <trkpt lat="49.15962" lon="7.19855">
        <ele>306.19793470484</ele>
        <time>2020-06-27T07:38:50Z</time>
      </trkpt>
      <trkpt lat="49.15957" lon="7.19865">
        <ele>303.12119228438</ele>
        <time>2020-06-27T07:38:57Z</time>
      </trkpt>
      <trkpt lat="49.15955" lon="7.19875">
        <ele>302.0282312275</ele>
        <time>2020-06-27T07:39:03Z</time>
      </trkpt>
      <trkpt lat="49.15951" lon="7.19887">
        <ele>299.75353551047</ele>
        <time>2020-06-27T07:39:10Z</time>
      </trkpt>
      <trkpt lat="49.15946" lon="7.19898">
        <ele>297.784157205</ele>
        <time>2020-06-27T07:39:17Z</time>
      </trkpt>
      <trkpt lat="49.15942" lon="7.1991">
        <ele>293.69055991656</ele>
        <time>2020-06-27T07:39:24Z</time>
      </trkpt>
      <trkpt lat="49.15938" lon="7.19921">
        <ele>291.80537756672</ele>
        <time>2020-06-27T07:39:30Z</time>
      </trkpt>
      <trkpt lat="49.15934" lon="7.19933">
        <ele>294.68499804469</ele>
        <time>2020-06-27T07:40:02Z</time>
      </trkpt>
      <trkpt lat="49.15929" lon="7.19943">
        <ele>295.07428959734</ele>
        <time>2020-06-27T07:41:36Z</time>
      </trkpt>
      <trkpt lat="49.15932" lon="7.19956">
        <ele>296.91570042266</ele>
        <time>2020-06-27T07:41:46Z</time>
      </trkpt>
      <trkpt lat="49.15935" lon="7.19969">
        <ele>298.69899621922</ele>
        <time>2020-06-27T07:41:55Z</time>
      </trkpt>
      <trkpt lat="49.15941" lon="7.19978">
        <ele>298.34002523625</ele>
        <time>2020-06-27T07:42:05Z</time>
      </trkpt>
      <trkpt lat="49.15945" lon="7.19986">
        <ele>298.05200698969</ele>
        <time>2020-06-27T07:42:18Z</time>
      </trkpt>
      <trkpt lat="49.15947" lon="7.20006">
        <ele>295.95975284563</ele>
        <time>2020-06-27T07:42:23Z</time>
      </trkpt>
      <trkpt lat="49.15948" lon="7.20017">
        <ele>296.27890212375</ele>
        <time>2020-06-27T07:42:27Z</time>
      </trkpt>
      <trkpt lat="49.1595" lon="7.2003">
        <ele>293.173414935</ele>
        <time>2020-06-27T07:42:36Z</time>
      </trkpt>
      <trkpt lat="49.15949" lon="7.20044">
        <ele>296.14821069188</ele>
        <time>2020-06-27T07:42:59Z</time>
      </trkpt>
      <trkpt lat="49.15957" lon="7.2004">
        <ele>288.66008260187</ele>
        <time>2020-06-27T07:43:21Z</time>
      </trkpt>
      <trkpt lat="49.15966" lon="7.20048">
        <ele>290.25392964797</ele>
        <time>2020-06-27T07:43:25Z</time>
      </trkpt>
      <trkpt lat="49.15973" lon="7.20054">
        <ele>287.25693311125</ele>
        <time>2020-06-27T07:43:38Z</time>
      </trkpt>
      <trkpt lat="49.15975" lon="7.20065">
        <ele>280.94518545438</ele>
        <time>2020-06-27T07:45:00Z</time>
      </trkpt>
      <trkpt lat="49.15979" lon="7.20076">
        <ele>280.06047607062</ele>
        <time>2020-06-27T07:45:07Z</time>
      </trkpt>
      <trkpt lat="49.15986" lon="7.20083">
        <ele>279.67935057562</ele>
        <time>2020-06-27T07:45:16Z</time>
      </trkpt>
      <trkpt lat="49.15992" lon="7.20092">
        <ele>276.82864961875</ele>
        <time>2020-06-27T07:45:28Z</time>
      </trkpt>
      <trkpt lat="49.16" lon="7.20098">
        <ele>275.12343440406</ele>
        <time>2020-06-27T07:45:39Z</time>
      </trkpt>
      <trkpt lat="49.16008" lon="7.20102">
        <ele>262.18018792969</ele>
        <time>2020-06-27T07:46:44Z</time>
      </trkpt>
      <trkpt lat="49.16016" lon="7.20096">
        <ele>261.67204811328</ele>
        <time>2020-06-27T07:46:51Z</time>
      </trkpt>
      <trkpt lat="49.16025" lon="7.20093">
        <ele>265.1269571825</ele>
        <time>2020-06-27T07:47:41Z</time>
      </trkpt>
      <trkpt lat="49.16033" lon="7.20091">
        <ele>266.9727151475</ele>
        <time>2020-06-27T07:47:53Z</time>
      </trkpt>
      <trkpt lat="49.16042" lon="7.2009">
        <ele>264.901498165</ele>
        <time>2020-06-27T07:48:00Z</time>
      </trkpt>
      <trkpt lat="49.16049" lon="7.20086">
        <ele>264.65431147188</ele>
        <time>2020-06-27T07:48:07Z</time>
      </trkpt>
      <trkpt lat="49.16057" lon="7.20084">
        <ele>263.38482998672</ele>
        <time>2020-06-27T07:48:15Z</time>
      </trkpt>
      <trkpt lat="49.16065" lon="7.20082">
        <ele>262.85795980281</ele>
        <time>2020-06-27T07:48:25Z</time>
      </trkpt>
      <trkpt lat="49.16073" lon="7.20076">
        <ele>264.49335511875</ele>
        <time>2020-06-27T07:49:08Z</time>
      </trkpt>
      <trkpt lat="49.1608" lon="7.20068">
        <ele>264.86028834234</ele>
        <time>2020-06-27T07:49:17Z</time>
      </trkpt>
      <trkpt lat="49.16088" lon="7.2007">
        <ele>263.49755832391</ele>
        <time>2020-06-27T07:49:21Z</time>
      </trkpt>
      <trkpt lat="49.16095" lon="7.20076">
        <ele>262.81227657016</ele>
        <time>2020-06-27T07:49:28Z</time>
      </trkpt>
      <trkpt lat="49.16104" lon="7.2008">
        <ele>258.91823754687</ele>
        <time>2020-06-27T07:49:35Z</time>
      </trkpt>
      <trkpt lat="49.16111" lon="7.20084">
        <ele>257.61187500797</ele>
        <time>2020-06-27T07:49:49Z</time>
      </trkpt>
      <trkpt lat="49.16118" lon="7.20092">
        <ele>262.22587121562</ele>
        <time>2020-06-27T07:49:55Z</time>
      </trkpt>
      <trkpt lat="49.16125" lon="7.201">
        <ele>266.08426514891</ele>
        <time>2020-06-27T07:50:07Z</time>
      </trkpt>
      <trkpt lat="49.16129" lon="7.20109">
        <ele>266.11688984844</ele>
        <time>2020-06-27T07:50:14Z</time>
      </trkpt>
      <trkpt lat="49.16135" lon="7.2012">
        <ele>266.37415879812</ele>
        <time>2020-06-27T07:50:23Z</time>
      </trkpt>
      <trkpt lat="49.1614" lon="7.20129">
        <ele>266.30188402406</ele>
        <time>2020-06-27T07:50:32Z</time>
      </trkpt>
      <trkpt lat="49.16146" lon="7.2014">
        <ele>265.06989044125</ele>
        <time>2020-06-27T07:50:42Z</time>
      </trkpt>
      <trkpt lat="49.16149" lon="7.20152">
        <ele>261.8121050625</ele>
        <time>2020-06-27T07:50:55Z</time>
      </trkpt>
      <trkpt lat="49.16157" lon="7.20158">
        <ele>262.80685285969</ele>
        <time>2020-06-27T07:51:13Z</time>
      </trkpt>
      <trkpt lat="49.16161" lon="7.20169">
        <ele>263.4715565925</ele>
        <time>2020-06-27T07:51:35Z</time>
      </trkpt>
      <trkpt lat="49.16165" lon="7.20181">
        <ele>260.61843657969</ele>
        <time>2020-06-27T07:51:46Z</time>
      </trkpt>
      <trkpt lat="49.1617" lon="7.20192">
        <ele>257.51740752219</ele>
        <time>2020-06-27T07:51:58Z</time>
      </trkpt>
      <trkpt lat="49.16173" lon="7.20203">
        <ele>256.87026884172</ele>
        <time>2020-06-27T07:52:07Z</time>
      </trkpt>
      <trkpt lat="49.16177" lon="7.20215">
        <ele>258.32761522875</ele>
        <time>2020-06-27T07:52:15Z</time>
      </trkpt>
      <trkpt lat="49.1618" lon="7.20227">
        <ele>264.06676697219</ele>
        <time>2020-06-27T07:52:21Z</time>
      </trkpt>
      <trkpt lat="49.16184" lon="7.20239">
        <ele>267.97695302344</ele>
        <time>2020-06-27T07:52:28Z</time>
      </trkpt>
      <trkpt lat="49.16187" lon="7.20252">
        <ele>267.23961673719</ele>
        <time>2020-06-27T07:52:38Z</time>
      </trkpt>
      <trkpt lat="49.1619" lon="7.20264">
        <ele>267.11661705859</ele>
        <time>2020-06-27T07:52:45Z</time>
      </trkpt>
      <trkpt lat="49.16195" lon="7.20275">
        <ele>270.44107231531</ele>
        <time>2020-06-27T07:52:53Z</time>
      </trkpt>
      <trkpt lat="49.162" lon="7.20285">
        <ele>270.764765115</ele>
        <time>2020-06-27T07:53:01Z</time>
      </trkpt>
      <trkpt lat="49.16206" lon="7.20295">
        <ele>272.52375412906</ele>
        <time>2020-06-27T07:53:10Z</time>
      </trkpt>
      <trkpt lat="49.16211" lon="7.20306">
        <ele>277.91885118156</ele>
        <time>2020-06-27T07:53:20Z</time>
      </trkpt>
      <trkpt lat="49.16217" lon="7.20316">
        <ele>279.3035900975</ele>
        <time>2020-06-27T07:53:35Z</time>
      </trkpt>
      <trkpt lat="49.16222" lon="7.20327">
        <ele>279.51669858922</ele>
        <time>2020-06-27T07:53:44Z</time>
      </trkpt>
      <trkpt lat="49.16226" lon="7.20337">
        <ele>280.61949051844</ele>
        <time>2020-06-27T07:53:52Z</time>
      </trkpt>
      <trkpt lat="49.16228" lon="7.2035">
        <ele>279.03007637578</ele>
        <time>2020-06-27T07:54:01Z</time>
      </trkpt>
      <trkpt lat="49.16232" lon="7.20362">
        <ele>280.33434003094</ele>
        <time>2020-06-27T07:54:09Z</time>
      </trkpt>
      <trkpt lat="49.16238" lon="7.2037">
        <ele>282.823873515</ele>
        <time>2020-06-27T07:55:12Z</time>
      </trkpt>
      <trkpt lat="49.16237" lon="7.20383">
        <ele>282.36960604344</ele>
        <time>2020-06-27T07:55:55Z</time>
      </trkpt>
      <trkpt lat="49.16243" lon="7.20393">
        <ele>282.12270804734</ele>
        <time>2020-06-27T07:56:26Z</time>
      </trkpt>
      <trkpt lat="49.1625" lon="7.20401">
        <ele>282.8997721125</ele>
        <time>2020-06-27T07:56:34Z</time>
      </trkpt>
      <trkpt lat="49.16256" lon="7.2041">
        <ele>283.12770647688</ele>
        <time>2020-06-27T07:56:52Z</time>
      </trkpt>
      <trkpt lat="49.16262" lon="7.20419">
        <ele>282.10779958687</ele>
        <time>2020-06-27T07:57:01Z</time>
      </trkpt>
      <trkpt lat="49.1626" lon="7.20431">
        <ele>280.62793502969</ele>
        <time>2020-06-27T07:57:13Z</time>
      </trkpt>
      <trkpt lat="49.16255" lon="7.20441">
        <ele>278.06552835094</ele>
        <time>2020-06-27T07:57:20Z</time>
      </trkpt>
      <trkpt lat="49.16248" lon="7.2045">
        <ele>272.90571424766</ele>
        <time>2020-06-27T07:57:35Z</time>
      </trkpt>
      <trkpt lat="49.1624" lon="7.2045">
        <ele>271.4817962475</ele>
        <time>2020-06-27T07:57:48Z</time>
      </trkpt>
      <trkpt lat="49.16234" lon="7.20441">
        <ele>271.23185047172</ele>
        <time>2020-06-27T07:57:56Z</time>
      </trkpt>
      <trkpt lat="49.16228" lon="7.20431">
        <ele>270.44214473406</ele>
        <time>2020-06-27T07:58:04Z</time>
      </trkpt>
      <trkpt lat="49.1622" lon="7.20427">
        <ele>271.02106584563</ele>
        <time>2020-06-27T07:58:11Z</time>
      </trkpt>
      <trkpt lat="49.16212" lon="7.20424">
        <ele>271.33117952422</ele>
        <time>2020-06-27T07:58:17Z</time>
      </trkpt>
      <trkpt lat="49.16205" lon="7.20418">
        <ele>273.48716008297</ele>
        <time>2020-06-27T07:58:23Z</time>
      </trkpt>
      <trkpt lat="49.16199" lon="7.20411">
        <ele>273.455063295</ele>
        <time>2020-06-27T07:58:28Z</time>
      </trkpt>
      <trkpt lat="49.16194" lon="7.20402">
        <ele>273.10426928109</ele>
        <time>2020-06-27T07:58:34Z</time>
      </trkpt>
      <trkpt lat="49.16189" lon="7.20392">
        <ele>270.37109301813</ele>
        <time>2020-06-27T07:58:41Z</time>
      </trkpt>
      <trkpt lat="49.16184" lon="7.20382">
        <ele>270.52616618406</ele>
        <time>2020-06-27T07:58:48Z</time>
      </trkpt>
      <trkpt lat="49.16177" lon="7.20373">
        <ele>271.76504397469</ele>
        <time>2020-06-27T07:59:19Z</time>
      </trkpt>
      <trkpt lat="49.16169" lon="7.20366">
        <ele>268.22355036781</ele>
        <time>2020-06-27T07:59:27Z</time>
      </trkpt>
      <trkpt lat="49.16164" lon="7.20356">
        <ele>267.28871894859</ele>
        <time>2020-06-27T07:59:36Z</time>
      </trkpt>
      <trkpt lat="49.16158" lon="7.20347">
        <ele>266.35263058625</ele>
        <time>2020-06-27T07:59:43Z</time>
      </trkpt>
      <trkpt lat="49.16152" lon="7.20337">
        <ele>264.63819667625</ele>
        <time>2020-06-27T07:59:50Z</time>
      </trkpt>
      <trkpt lat="49.16148" lon="7.20327">
        <ele>264.43814170312</ele>
        <time>2020-06-27T07:59:56Z</time>
      </trkpt>
      <trkpt lat="49.16142" lon="7.20316">
        <ele>264.67967285031</ele>
        <time>2020-06-27T08:00:03Z</time>
      </trkpt>
      <trkpt lat="49.16138" lon="7.20305">
        <ele>262.58160058813</ele>
        <time>2020-06-27T08:00:10Z</time>
      </trkpt>
      <trkpt lat="49.16133" lon="7.20296">
        <ele>262.24616267844</ele>
        <time>2020-06-27T08:00:16Z</time>
      </trkpt>
      <trkpt lat="49.16127" lon="7.20286">
        <ele>261.16425732781</ele>
        <time>2020-06-27T08:00:23Z</time>
      </trkpt>
      <trkpt lat="49.16121" lon="7.20278">
        <ele>259.25467489844</ele>
        <time>2020-06-27T08:00:30Z</time>
      </trkpt>
      <trkpt lat="49.16114" lon="7.20271">
        <ele>258.58266113234</ele>
        <time>2020-06-27T08:00:37Z</time>
      </trkpt>
      <trkpt lat="49.16107" lon="7.20265">
        <ele>257.26247936203</ele>
        <time>2020-06-27T08:00:44Z</time>
      </trkpt>
      <trkpt lat="49.161" lon="7.20256">
        <ele>256.15172149766</ele>
        <time>2020-06-27T08:00:52Z</time>
      </trkpt>
      <trkpt lat="49.16095" lon="7.20247">
        <ele>256.06904297</ele>
        <time>2020-06-27T08:01:00Z</time>
      </trkpt>
      <trkpt lat="49.1609" lon="7.20237">
        <ele>255.73948859531</ele>
        <time>2020-06-27T08:01:08Z</time>
      </trkpt>
      <trkpt lat="49.16084" lon="7.20228">
        <ele>254.20529189687</ele>
        <time>2020-06-27T08:01:16Z</time>
      </trkpt>
      <trkpt lat="49.16079" lon="7.20217">
        <ele>252.8680642525</ele>
        <time>2020-06-27T08:01:24Z</time>
      </trkpt>
      <trkpt lat="49.16075" lon="7.20206">
        <ele>250.69113524844</ele>
        <time>2020-06-27T08:01:30Z</time>
      </trkpt>
      <trkpt lat="49.16071" lon="7.20195">
        <ele>249.39982816156</ele>
        <time>2020-06-27T08:01:37Z</time>
      </trkpt>
      <trkpt lat="49.16064" lon="7.20188">
        <ele>243.9376113075</ele>
        <time>2020-06-27T08:01:44Z</time>
      </trkpt>
      <trkpt lat="49.16057" lon="7.20195">
        <ele>240.81724355516</ele>
        <time>2020-06-27T08:01:51Z</time>
      </trkpt>
      <trkpt lat="49.16051" lon="7.20204">
        <ele>240.90251603938</ele>
        <time>2020-06-27T08:01:58Z</time>
      </trkpt>
      <trkpt lat="49.16049" lon="7.20216">
        <ele>242.45320450031</ele>
        <time>2020-06-27T08:02:04Z</time>
      </trkpt>
      <trkpt lat="49.16046" lon="7.20228">
        <ele>241.64228133563</ele>
        <time>2020-06-27T08:02:11Z</time>
      </trkpt>
      <trkpt lat="49.16041" lon="7.2024">
        <ele>242.91734439094</ele>
        <time>2020-06-27T08:02:18Z</time>
      </trkpt>
      <trkpt lat="49.16039" lon="7.20252">
        <ele>243.21476634859</ele>
        <time>2020-06-27T08:02:25Z</time>
      </trkpt>
      <trkpt lat="49.16033" lon="7.20262">
        <ele>241.4014275425</ele>
        <time>2020-06-27T08:02:32Z</time>
      </trkpt>
      <trkpt lat="49.16028" lon="7.20272">
        <ele>240.28518109594</ele>
        <time>2020-06-27T08:02:38Z</time>
      </trkpt>
      <trkpt lat="49.16022" lon="7.20281">
        <ele>239.23772451531</ele>
        <time>2020-06-27T08:02:45Z</time>
      </trkpt>
      <trkpt lat="49.16016" lon="7.20289">
        <ele>237.71650741187</ele>
        <time>2020-06-27T08:02:52Z</time>
      </trkpt>
      <trkpt lat="49.1601" lon="7.20298">
        <ele>237.73012830266</ele>
        <time>2020-06-27T08:02:59Z</time>
      </trkpt>
      <trkpt lat="49.16005" lon="7.20307">
        <ele>236.97799544312</ele>
        <time>2020-06-27T08:03:05Z</time>
      </trkpt>
      <trkpt lat="49.16001" lon="7.20319">
        <ele>236.56787583438</ele>
        <time>2020-06-27T08:03:12Z</time>
      </trkpt>
      <trkpt lat="49.15996" lon="7.20329">
        <ele>234.96725182781</ele>
        <time>2020-06-27T08:03:19Z</time>
      </trkpt>
      <trkpt lat="49.15991" lon="7.2034">
        <ele>235.10081891094</ele>
        <time>2020-06-27T08:03:26Z</time>
      </trkpt>
      <trkpt lat="49.15987" lon="7.20352">
        <ele>234.80763570156</ele>
        <time>2020-06-27T08:03:33Z</time>
      </trkpt>
      <trkpt lat="49.15979" lon="7.20358">
        <ele>239.20472960875</ele>
        <time>2020-06-27T08:03:42Z</time>
      </trkpt>
      <trkpt lat="49.15971" lon="7.20351">
        <ele>243.06280253469</ele>
        <time>2020-06-27T08:04:16Z</time>
      </trkpt>
      <trkpt lat="49.15963" lon="7.20355">
        <ele>243.77864551266</ele>
        <time>2020-06-27T08:04:55Z</time>
      </trkpt>
      <trkpt lat="49.15955" lon="7.20359">
        <ele>242.38449073906</ele>
        <time>2020-06-27T08:05:04Z</time>
      </trkpt>
      <trkpt lat="49.15946" lon="7.20361">
        <ele>241.8799031775</ele>
        <time>2020-06-27T08:05:12Z</time>
      </trkpt>
      <trkpt lat="49.15938" lon="7.20361">
        <ele>241.35134652438</ele>
        <time>2020-06-27T08:05:19Z</time>
      </trkpt>
      <trkpt lat="49.15929" lon="7.20361">
        <ele>239.79755303172</ele>
        <time>2020-06-27T08:05:26Z</time>
      </trkpt>
      <trkpt lat="49.1592" lon="7.20361">
        <ele>239.88678519016</ele>
        <time>2020-06-27T08:05:33Z</time>
      </trkpt>
      <trkpt lat="49.15912" lon="7.20361">
        <ele>240.67749379937</ele>
        <time>2020-06-27T08:05:40Z</time>
      </trkpt>
      <trkpt lat="49.15904" lon="7.2036">
        <ele>240.30589577297</ele>
        <time>2020-06-27T08:05:47Z</time>
      </trkpt>
      <trkpt lat="49.15895" lon="7.20359">
        <ele>239.02634332219</ele>
        <time>2020-06-27T08:05:54Z</time>
      </trkpt>
      <trkpt lat="49.15886" lon="7.20358">
        <ele>238.74401792937</ele>
        <time>2020-06-27T08:06:01Z</time>
      </trkpt>
      <trkpt lat="49.15878" lon="7.20359">
        <ele>238.9834788425</ele>
        <time>2020-06-27T08:06:09Z</time>
      </trkpt>
      <trkpt lat="49.15869" lon="7.20361">
        <ele>239.84051558172</ele>
        <time>2020-06-27T08:06:21Z</time>
      </trkpt>
      <trkpt lat="49.15862" lon="7.20361">
        <ele>241.68762215531</ele>
        <time>2020-06-27T08:06:28Z</time>
      </trkpt>
      <trkpt lat="49.15853" lon="7.20362">
        <ele>242.69174418594</ele>
        <time>2020-06-27T08:06:35Z</time>
      </trkpt>
      <trkpt lat="49.15845" lon="7.20363">
        <ele>245.15703933719</ele>
        <time>2020-06-27T08:06:42Z</time>
      </trkpt>
      <trkpt lat="49.15837" lon="7.20362">
        <ele>245.61458522844</ele>
        <time>2020-06-27T08:06:49Z</time>
      </trkpt>
      <trkpt lat="49.15828" lon="7.20362">
        <ele>245.58956353438</ele>
        <time>2020-06-27T08:06:57Z</time>
      </trkpt>
      <trkpt lat="49.1582" lon="7.20355">
        <ele>242.19789312094</ele>
        <time>2020-06-27T08:07:04Z</time>
      </trkpt>
      <trkpt lat="49.15812" lon="7.20354">
        <ele>240.85685074781</ele>
        <time>2020-06-27T08:07:10Z</time>
      </trkpt>
      <trkpt lat="49.15804" lon="7.20354">
        <ele>239.67423768031</ele>
        <time>2020-06-27T08:07:17Z</time>
      </trkpt>
      <trkpt lat="49.15795" lon="7.20353">
        <ele>240.14460507437</ele>
        <time>2020-06-27T08:07:23Z</time>
      </trkpt>
      <trkpt lat="49.15787" lon="7.20355">
        <ele>239.33315306719</ele>
        <time>2020-06-27T08:07:30Z</time>
      </trkpt>
      <trkpt lat="49.15779" lon="7.20352">
        <ele>237.8783161325</ele>
        <time>2020-06-27T08:07:36Z</time>
      </trkpt>
      <trkpt lat="49.15771" lon="7.2035">
        <ele>238.4740704175</ele>
        <time>2020-06-27T08:07:43Z</time>
      </trkpt>
      <trkpt lat="49.15762" lon="7.20349">
        <ele>239.60822081578</ele>
        <time>2020-06-27T08:07:50Z</time>
      </trkpt>
      <trkpt lat="49.15753" lon="7.20348">
        <ele>240.39750658125</ele>
        <time>2020-06-27T08:07:57Z</time>
      </trkpt>
      <trkpt lat="49.15745" lon="7.20347">
        <ele>239.69920348344</ele>
        <time>2020-06-27T08:08:03Z</time>
      </trkpt>
      <trkpt lat="49.15736" lon="7.20343">
        <ele>238.94627644563</ele>
        <time>2020-06-27T08:08:10Z</time>
      </trkpt>
      <trkpt lat="49.15728" lon="7.20342">
        <ele>238.4431492175</ele>
        <time>2020-06-27T08:08:16Z</time>
      </trkpt>
      <trkpt lat="49.15721" lon="7.2034">
        <ele>238.08912216094</ele>
        <time>2020-06-27T08:08:22Z</time>
      </trkpt>
      <trkpt lat="49.15713" lon="7.20339">
        <ele>238.64726862969</ele>
        <time>2020-06-27T08:08:28Z</time>
      </trkpt>
      <trkpt lat="49.15705" lon="7.20336">
        <ele>237.95225367516</ele>
        <time>2020-06-27T08:08:34Z</time>
      </trkpt>
      <trkpt lat="49.15697" lon="7.20332">
        <ele>237.78314594687</ele>
        <time>2020-06-27T08:08:41Z</time>
      </trkpt>
      <trkpt lat="49.15688" lon="7.20329">
        <ele>234.93206897781</ele>
        <time>2020-06-27T08:08:48Z</time>
      </trkpt>
      <trkpt lat="49.1568" lon="7.20326">
        <ele>232.65509768844</ele>
        <time>2020-06-27T08:08:54Z</time>
      </trkpt>
      <trkpt lat="49.15671" lon="7.20324">
        <ele>232.587444505</ele>
        <time>2020-06-27T08:09:01Z</time>
      </trkpt>
      <trkpt lat="49.15663" lon="7.20324">
        <ele>233.8266961175</ele>
        <time>2020-06-27T08:09:07Z</time>
      </trkpt>
      <trkpt lat="49.15655" lon="7.20322">
        <ele>234.21396946875</ele>
        <time>2020-06-27T08:09:14Z</time>
      </trkpt>
      <trkpt lat="49.15646" lon="7.20322">
        <ele>235.35484412938</ele>
        <time>2020-06-27T08:09:21Z</time>
      </trkpt>
      <trkpt lat="49.15637" lon="7.20321">
        <ele>233.77076044406</ele>
        <time>2020-06-27T08:09:28Z</time>
      </trkpt>
      <trkpt lat="49.15629" lon="7.20323">
        <ele>234.8404160725</ele>
        <time>2020-06-27T08:09:35Z</time>
      </trkpt>
      <trkpt lat="49.15621" lon="7.20325">
        <ele>236.89035578062</ele>
        <time>2020-06-27T08:09:42Z</time>
      </trkpt>
      <trkpt lat="49.15613" lon="7.20325">
        <ele>235.63280238125</ele>
        <time>2020-06-27T08:09:49Z</time>
      </trkpt>
      <trkpt lat="49.15605" lon="7.20326">
        <ele>235.27809684828</ele>
        <time>2020-06-27T08:09:56Z</time>
      </trkpt>
      <trkpt lat="49.15597" lon="7.20328">
        <ele>238.02991157812</ele>
        <time>2020-06-27T08:10:02Z</time>
      </trkpt>
      <trkpt lat="49.15588" lon="7.2033">
        <ele>240.58769334625</ele>
        <time>2020-06-27T08:10:10Z</time>
      </trkpt>
      <trkpt lat="49.1558" lon="7.20331">
        <ele>241.0920427975</ele>
        <time>2020-06-27T08:10:17Z</time>
      </trkpt>
      <trkpt lat="49.15571" lon="7.20329">
        <ele>239.77679870031</ele>
        <time>2020-06-27T08:10:24Z</time>
      </trkpt>
      <trkpt lat="49.15563" lon="7.2033">
        <ele>239.8654973775</ele>
        <time>2020-06-27T08:10:31Z</time>
      </trkpt>
      <trkpt lat="49.15555" lon="7.20331">
        <ele>240.11167187781</ele>
        <time>2020-06-27T08:10:37Z</time>
      </trkpt>
      <trkpt lat="49.15547" lon="7.20332">
        <ele>239.49099113391</ele>
        <time>2020-06-27T08:10:43Z</time>
      </trkpt>
      <trkpt lat="49.15538" lon="7.20332">
        <ele>238.85554260219</ele>
        <time>2020-06-27T08:10:50Z</time>
      </trkpt>
      <trkpt lat="49.1553" lon="7.20333">
        <ele>239.01528576125</ele>
        <time>2020-06-27T08:10:57Z</time>
      </trkpt>
      <trkpt lat="49.15521" lon="7.20335">
        <ele>240.83529984062</ele>
        <time>2020-06-27T08:11:04Z</time>
      </trkpt>
      <trkpt lat="49.15513" lon="7.20336">
        <ele>241.24941225094</ele>
        <time>2020-06-27T08:11:11Z</time>
      </trkpt>
      <trkpt lat="49.15504" lon="7.20337">
        <ele>239.69214647437</ele>
        <time>2020-06-27T08:11:18Z</time>
      </trkpt>
      <trkpt lat="49.15496" lon="7.20338">
        <ele>240.70149452844</ele>
        <time>2020-06-27T08:11:25Z</time>
      </trkpt>
      <trkpt lat="49.15488" lon="7.20339">
        <ele>241.01454796</ele>
        <time>2020-06-27T08:11:31Z</time>
      </trkpt>
      <trkpt lat="49.1548" lon="7.2034">
        <ele>240.05357286</ele>
        <time>2020-06-27T08:11:37Z</time>
      </trkpt>
      <trkpt lat="49.15472" lon="7.20341">
        <ele>235.68757334312</ele>
        <time>2020-06-27T08:11:44Z</time>
      </trkpt>
      <trkpt lat="49.15464" lon="7.20344">
        <ele>238.56735871563</ele>
        <time>2020-06-27T08:11:51Z</time>
      </trkpt>
      <trkpt lat="49.15457" lon="7.20346">
        <ele>237.83704678625</ele>
        <time>2020-06-27T08:11:58Z</time>
      </trkpt>
      <trkpt lat="49.15448" lon="7.20347">
        <ele>236.25832994984</ele>
        <time>2020-06-27T08:12:05Z</time>
      </trkpt>
      <trkpt lat="49.1544" lon="7.2035">
        <ele>237.43661479156</ele>
        <time>2020-06-27T08:12:12Z</time>
      </trkpt>
      <trkpt lat="49.15433" lon="7.20352">
        <ele>239.058959835</ele>
        <time>2020-06-27T08:12:18Z</time>
      </trkpt>
      <trkpt lat="49.15425" lon="7.20355">
        <ele>240.41311596188</ele>
        <time>2020-06-27T08:12:24Z</time>
      </trkpt>
      <trkpt lat="49.15416" lon="7.20356">
        <ele>239.55411164797</ele>
        <time>2020-06-27T08:12:31Z</time>
      </trkpt>
      <trkpt lat="49.15409" lon="7.20356">
        <ele>239.47865255484</ele>
        <time>2020-06-27T08:12:37Z</time>
      </trkpt>
      <trkpt lat="49.15401" lon="7.20358">
        <ele>240.08461962125</ele>
        <time>2020-06-27T08:12:43Z</time>
      </trkpt>
      <trkpt lat="49.15392" lon="7.20357">
        <ele>239.0539015425</ele>
        <time>2020-06-27T08:12:50Z</time>
      </trkpt>
      <trkpt lat="49.15383" lon="7.20357">
        <ele>240.09482597234</ele>
        <time>2020-06-27T08:12:57Z</time>
      </trkpt>
      <trkpt lat="49.15376" lon="7.20363">
        <ele>242.06363662812</ele>
        <time>2020-06-27T08:13:13Z</time>
      </trkpt>
      <trkpt lat="49.15368" lon="7.20368">
        <ele>240.11584355219</ele>
        <time>2020-06-27T08:13:21Z</time>
      </trkpt>
      <trkpt lat="49.1536" lon="7.20372">
        <ele>240.42476374344</ele>
        <time>2020-06-27T08:13:28Z</time>
      </trkpt>
      <trkpt lat="49.15351" lon="7.20373">
        <ele>238.55741337313</ele>
        <time>2020-06-27T08:13:35Z</time>
      </trkpt>
      <trkpt lat="49.15342" lon="7.20375">
        <ele>238.94636581906</ele>
        <time>2020-06-27T08:13:42Z</time>
      </trkpt>
      <trkpt lat="49.15334" lon="7.20378">
        <ele>239.04817705</ele>
        <time>2020-06-27T08:13:48Z</time>
      </trkpt>
      <trkpt lat="49.15325" lon="7.20378">
        <ele>238.44684529062</ele>
        <time>2020-06-27T08:13:55Z</time>
      </trkpt>
      <trkpt lat="49.15317" lon="7.20379">
        <ele>237.24097650375</ele>
        <time>2020-06-27T08:14:01Z</time>
      </trkpt>
      <trkpt lat="49.15309" lon="7.2038">
        <ele>236.96677898187</ele>
        <time>2020-06-27T08:14:07Z</time>
      </trkpt>
      <trkpt lat="49.15301" lon="7.20383">
        <ele>236.89105558328</ele>
        <time>2020-06-27T08:14:13Z</time>
      </trkpt>
      <trkpt lat="49.15293" lon="7.20385">
        <ele>235.6289249375</ele>
        <time>2020-06-27T08:14:19Z</time>
      </trkpt>
      <trkpt lat="49.15285" lon="7.20388">
        <ele>234.86992436469</ele>
        <time>2020-06-27T08:14:26Z</time>
      </trkpt>
      <trkpt lat="49.15276" lon="7.20388">
        <ele>234.09156965219</ele>
        <time>2020-06-27T08:14:34Z</time>
      </trkpt>
      <trkpt lat="49.15268" lon="7.20391">
        <ele>233.04446542188</ele>
        <time>2020-06-27T08:14:41Z</time>
      </trkpt>
      <trkpt lat="49.15259" lon="7.20392">
        <ele>233.00056290453</ele>
        <time>2020-06-27T08:14:48Z</time>
      </trkpt>
      <trkpt lat="49.15251" lon="7.20394">
        <ele>232.84551036281</ele>
        <time>2020-06-27T08:14:55Z</time>
      </trkpt>
      <trkpt lat="49.15242" lon="7.20393">
        <ele>232.77307355234</ele>
        <time>2020-06-27T08:15:02Z</time>
      </trkpt>
      <trkpt lat="49.15234" lon="7.20398">
        <ele>234.35944812391</ele>
        <time>2020-06-27T08:15:08Z</time>
      </trkpt>
      <trkpt lat="49.15226" lon="7.20401">
        <ele>236.01551588875</ele>
        <time>2020-06-27T08:15:15Z</time>
      </trkpt>
      <trkpt lat="49.15217" lon="7.20401">
        <ele>234.44697300828</ele>
        <time>2020-06-27T08:15:21Z</time>
      </trkpt>
      <trkpt lat="49.15209" lon="7.20401">
        <ele>234.44104051812</ele>
        <time>2020-06-27T08:15:27Z</time>
      </trkpt>
      <trkpt lat="49.15201" lon="7.20403">
        <ele>235.00359750844</ele>
        <time>2020-06-27T08:15:33Z</time>
      </trkpt>
      <trkpt lat="49.15193" lon="7.20403">
        <ele>233.49319769187</ele>
        <time>2020-06-27T08:15:39Z</time>
      </trkpt>
      <trkpt lat="49.15185" lon="7.20406">
        <ele>233.56487779562</ele>
        <time>2020-06-27T08:15:46Z</time>
      </trkpt>
      <trkpt lat="49.15177" lon="7.20407">
        <ele>234.47656391969</ele>
        <time>2020-06-27T08:15:52Z</time>
      </trkpt>
      <trkpt lat="49.15169" lon="7.20407">
        <ele>233.85016335109</ele>
        <time>2020-06-27T08:15:58Z</time>
      </trkpt>
      <trkpt lat="49.15161" lon="7.20409">
        <ele>234.52191251594</ele>
        <time>2020-06-27T08:16:04Z</time>
      </trkpt>
      <trkpt lat="49.15153" lon="7.2041">
        <ele>235.146489865</ele>
        <time>2020-06-27T08:16:10Z</time>
      </trkpt>
      <trkpt lat="49.15145" lon="7.2041">
        <ele>234.78173705125</ele>
        <time>2020-06-27T08:16:17Z</time>
      </trkpt>
      <trkpt lat="49.15136" lon="7.2041">
        <ele>235.61079425859</ele>
        <time>2020-06-27T08:16:24Z</time>
      </trkpt>
      <trkpt lat="49.15128" lon="7.20412">
        <ele>235.76764348531</ele>
        <time>2020-06-27T08:16:30Z</time>
      </trkpt>
      <trkpt lat="49.1512" lon="7.20412">
        <ele>236.54983864781</ele>
        <time>2020-06-27T08:16:36Z</time>
      </trkpt>
      <trkpt lat="49.15112" lon="7.20412">
        <ele>236.44530062516</ele>
        <time>2020-06-27T08:16:42Z</time>
      </trkpt>
      <trkpt lat="49.15104" lon="7.20411">
        <ele>235.92329465375</ele>
        <time>2020-06-27T08:16:48Z</time>
      </trkpt>
      <trkpt lat="49.15095" lon="7.20411">
        <ele>235.31076634562</ele>
        <time>2020-06-27T08:16:55Z</time>
      </trkpt>
      <trkpt lat="49.15086" lon="7.20412">
        <ele>235.61536125047</ele>
        <time>2020-06-27T08:17:01Z</time>
      </trkpt>
      <trkpt lat="49.15078" lon="7.20412">
        <ele>235.61540952563</ele>
        <time>2020-06-27T08:17:07Z</time>
      </trkpt>
      <trkpt lat="49.1507" lon="7.20412">
        <ele>234.36868846406</ele>
        <time>2020-06-27T08:17:14Z</time>
      </trkpt>
      <trkpt lat="49.15061" lon="7.20411">
        <ele>235.70396438219</ele>
        <time>2020-06-27T08:17:20Z</time>
      </trkpt>
      <trkpt lat="49.15053" lon="7.20415">
        <ele>237.47606225422</ele>
        <time>2020-06-27T08:17:26Z</time>
      </trkpt>
      <trkpt lat="49.15047" lon="7.20422">
        <ele>235.96912134219</ele>
        <time>2020-06-27T08:17:32Z</time>
      </trkpt>
      <trkpt lat="49.1504" lon="7.20428">
        <ele>232.65554757</ele>
        <time>2020-06-27T08:17:39Z</time>
      </trkpt>
      <trkpt lat="49.15034" lon="7.20436">
        <ele>230.89702401906</ele>
        <time>2020-06-27T08:17:45Z</time>
      </trkpt>
      <trkpt lat="49.1503" lon="7.20446">
        <ele>229.76478808156</ele>
        <time>2020-06-27T08:17:51Z</time>
      </trkpt>
      <trkpt lat="49.15025" lon="7.20456">
        <ele>227.33489540703</ele>
        <time>2020-06-27T08:17:57Z</time>
      </trkpt>
      <trkpt lat="49.15021" lon="7.20466">
        <ele>226.79726204172</ele>
        <time>2020-06-27T08:18:03Z</time>
      </trkpt>
      <trkpt lat="49.15019" lon="7.2048">
        <ele>224.95388324906</ele>
        <time>2020-06-27T08:18:10Z</time>
      </trkpt>
      <trkpt lat="49.15024" lon="7.20491">
        <ele>229.50349223719</ele>
        <time>2020-06-27T08:18:15Z</time>
      </trkpt>
      <trkpt lat="49.15029" lon="7.20501">
        <ele>229.38723311063</ele>
        <time>2020-06-27T08:18:21Z</time>
      </trkpt>
      <trkpt lat="49.15036" lon="7.20507">
        <ele>230.79695889516</ele>
        <time>2020-06-27T08:18:27Z</time>
      </trkpt>
      <trkpt lat="49.15045" lon="7.20512">
        <ele>231.35652851312</ele>
        <time>2020-06-27T08:18:33Z</time>
      </trkpt>
      <trkpt lat="49.15054" lon="7.20512">
        <ele>235.32724411813</ele>
        <time>2020-06-27T08:18:40Z</time>
      </trkpt>
      <trkpt lat="49.15051" lon="7.20499">
        <ele>234.03636008219</ele>
        <time>2020-06-27T08:18:50Z</time>
      </trkpt>
      <trkpt lat="49.15053" lon="7.20487">
        <ele>238.04742372422</ele>
        <time>2020-06-27T08:18:59Z</time>
      </trkpt>
      <trkpt lat="49.1506" lon="7.20481">
        <ele>239.31089463313</ele>
        <time>2020-06-27T08:19:08Z</time>
      </trkpt>
      <trkpt lat="49.15068" lon="7.20483">
        <ele>238.32874632906</ele>
        <time>2020-06-27T08:19:15Z</time>
      </trkpt>
      <trkpt lat="49.15077" lon="7.20482">
        <ele>236.70976865438</ele>
        <time>2020-06-27T08:19:23Z</time>
      </trkpt>
      <trkpt lat="49.15079" lon="7.20499">
        <ele>228.18504060281</ele>
        <time>2020-06-27T08:19:28Z</time>
      </trkpt>
      <trkpt lat="49.15079" lon="7.20511">
        <ele>225.34740587969</ele>
        <time>2020-06-27T08:19:34Z</time>
      </trkpt>
      <trkpt lat="49.15076" lon="7.20523">
        <ele>222.67591273188</ele>
        <time>2020-06-27T08:19:40Z</time>
      </trkpt>
      <trkpt lat="49.15083" lon="7.2053">
        <ele>227.39058395219</ele>
        <time>2020-06-27T08:19:48Z</time>
      </trkpt>
      <trkpt lat="49.15092" lon="7.20533">
        <ele>227.44239495016</ele>
        <time>2020-06-27T08:19:55Z</time>
      </trkpt>
      <trkpt lat="49.151" lon="7.20532">
        <ele>228.57222009234</ele>
        <time>2020-06-27T08:20:02Z</time>
      </trkpt>
      <trkpt lat="49.15108" lon="7.20533">
        <ele>227.46620362109</ele>
        <time>2020-06-27T08:20:09Z</time>
      </trkpt>
      <trkpt lat="49.15116" lon="7.20538">
        <ele>225.69631546562</ele>
        <time>2020-06-27T08:20:15Z</time>
      </trkpt>
      <trkpt lat="49.15124" lon="7.20541">
        <ele>224.76822467</ele>
        <time>2020-06-27T08:20:22Z</time>
      </trkpt>
      <trkpt lat="49.15131" lon="7.20534">
        <ele>224.06074091812</ele>
        <time>2020-06-27T08:20:35Z</time>
      </trkpt>
      <trkpt lat="49.15138" lon="7.2053">
        <ele>225.33417986781</ele>
        <time>2020-06-27T08:21:01Z</time>
      </trkpt>
      <trkpt lat="49.1513" lon="7.20529">
        <ele>218.21193273469</ele>
        <time>2020-06-27T08:21:13Z</time>
      </trkpt>
      <trkpt lat="49.15125" lon="7.20531">
        <ele>214.92962145219</ele>
        <time>2020-06-27T08:21:22Z</time>
      </trkpt>
      <trkpt lat="49.15125" lon="7.20531">
        <ele>214.92962145219</ele>
        <time>2020-06-27T08:21:23Z</time>
      </trkpt>
    </trkseg>
  </trk>
</gpx>